createdAt,value
2018-09-21T00:00:21.217Z,55.3
2018-09-21T00:01:11.586Z,55.3
2018-09-21T00:02:01.664Z,55.3
2018-09-21T00:02:51.674Z,55.2
2018-09-21T00:03:40.887Z,55.3
2018-09-21T00:04:31.822Z,55.2
2018-09-21T00:05:22.126Z,55.2
2018-09-21T00:06:11.951Z,55.2
2018-09-21T00:07:01.412Z,55.2
2018-09-21T00:07:52.075Z,55.2
2018-09-21T00:08:41.836Z,55.2
2018-09-21T00:09:32.238Z,55.2
2018-09-21T00:10:22.307Z,55.1
2018-09-21T00:11:12.301Z,55.2
2018-09-21T00:12:01.529Z,55.2
2018-09-21T00:12:52.215Z,55.1
2018-09-21T00:13:42.222Z,55.1
2018-09-21T00:14:32.545Z,55.1
2018-09-21T00:15:22.331Z,55.1
2018-09-21T00:16:12.113Z,55.1
2018-09-21T00:17:02.475Z,55.1
2018-09-21T00:17:52.243Z,55.1
2018-09-21T00:56:24.661Z,54.7
2018-09-21T00:57:14.877Z,54.7
2018-09-21T00:58:05.213Z,54.7
2018-09-21T00:58:54.728Z,54.7
2018-09-21T00:59:45.313Z,54.7
2018-09-21T01:00:35.430Z,54.7
2018-09-21T01:01:26.302Z,54.7
2018-09-21T01:02:15.532Z,54.7
2018-09-21T01:03:05.372Z,54.6
2018-09-21T01:03:55.665Z,54.6
2018-09-21T01:04:45.471Z,54.6
2018-09-21T01:05:35.490Z,54.6
2018-09-21T01:06:25.562Z,54.6
2018-09-21T01:07:15.339Z,54.6
2018-09-21T01:08:05.685Z,54.6
2018-09-21T01:08:55.747Z,54.6
2018-09-21T01:09:46.124Z,54.6
2018-09-21T01:10:35.908Z,54.6
2018-09-21T01:11:26.695Z,54.6
2018-09-21T01:12:16.290Z,54.6
2018-09-21T01:13:05.793Z,54.6
2018-09-21T01:13:56.117Z,54.6
2018-09-21T01:14:46.499Z,54.6
2018-09-21T01:15:36.256Z,54.5
2018-09-21T01:16:26.277Z,54.5
2018-09-21T01:17:15.787Z,54.5
2018-09-21T01:18:06.734Z,54.5
2018-09-21T01:18:56.239Z,54.5
2018-09-21T01:19:46.264Z,54.5
2018-09-21T01:20:36.911Z,54.4
2018-09-21T01:21:26.939Z,54.4
2018-09-21T01:22:16.751Z,54.4
2018-09-21T01:23:06.811Z,54.4
2018-09-21T01:23:56.044Z,54.4
2018-09-21T01:24:46.944Z,54.4
2018-09-21T01:25:36.983Z,54.4
2018-09-21T01:26:27.051Z,54.4
2018-09-21T01:27:16.866Z,54.4
2018-09-21T01:28:07.482Z,54.4
2018-09-21T01:28:57.516Z,54.4
2018-09-21T01:29:47.324Z,54.4
2018-09-21T01:30:37.361Z,54.4
2018-09-21T01:31:27.711Z,54.4
2018-09-21T01:32:18.341Z,54.4
2018-09-21T01:33:07.567Z,54.4
2018-09-21T01:33:57.946Z,54.4
2018-09-21T01:34:47.426Z,54.4
2018-09-21T01:35:37.758Z,54.3
2018-09-21T01:36:28.148Z,54.3
2018-09-21T01:37:17.579Z,54.3
2018-09-21T01:38:07.690Z,54.3
2018-09-21T01:38:58.292Z,54.3
2018-09-21T01:39:48.100Z,54.3
2018-09-21T01:40:38.153Z,54.3
2018-09-21T01:41:28.193Z,54.3
2018-09-21T01:42:18.519Z,54.3
2018-09-21T01:43:08.606Z,54.3
2018-09-21T01:43:58.103Z,54.3
2018-09-21T01:44:48.415Z,54.3
2018-09-21T01:45:38.513Z,54.3
2018-09-21T01:46:28.825Z,54.3
2018-09-21T01:47:18.975Z,54.2
2018-09-21T01:48:08.950Z,54.2
2018-09-21T01:48:58.734Z,54.2
2018-09-21T01:49:48.564Z,54.2
2018-09-21T01:50:38.758Z,54.2
2018-09-21T01:51:28.369Z,54.2
2018-09-21T01:52:19.000Z,54.2
2018-09-21T01:53:09.389Z,54.2
2018-09-21T01:53:59.122Z,54.1
2018-09-21T01:54:49.136Z,54.1
2018-09-21T01:55:39.267Z,54.1
2018-09-21T01:56:29.594Z,54.1
2018-09-21T01:57:19.084Z,54.1
2018-09-21T01:58:09.454Z,54.1
2018-09-21T01:58:59.208Z,54.1
2018-09-21T01:59:49.846Z,54.1
2018-09-21T02:00:39.619Z,54.1
2018-09-21T02:01:29.394Z,54.1
2018-09-21T02:02:19.742Z,54.1
2018-09-21T02:03:10.106Z,54.1
2018-09-21T02:03:59.904Z,54
2018-09-21T02:04:50.251Z,54.1
2018-09-21T02:05:39.702Z,54.1
2018-09-21T02:06:30.387Z,54.1
2018-09-21T02:07:19.946Z,54
2018-09-21T02:08:10.461Z,54
2018-09-21T02:09:00.248Z,54
2018-09-21T02:09:50.842Z,54
2018-09-21T02:10:40.376Z,54
2018-09-21T02:11:30.133Z,54
2018-09-21T02:12:19.631Z,53.9
2018-09-21T02:13:10.503Z,54
2018-09-21T02:14:00.899Z,53.9
2018-09-21T02:14:51.032Z,53.9
2018-09-21T02:15:41.060Z,53.9
2018-09-21T02:16:30.795Z,53.9
2018-09-21T02:17:20.843Z,53.9
2018-09-21T02:18:10.938Z,53.9
2018-09-21T02:19:01.032Z,53.9
2018-09-21T02:19:51.323Z,53.9
2018-09-21T02:20:40.853Z,53.9
2018-09-21T02:21:30.908Z,53.9
2018-09-21T02:22:21.515Z,53.9
2018-09-21T02:23:11.642Z,53.9
2018-09-21T02:24:01.385Z,53.9
2018-09-21T02:24:51.440Z,53.9
2018-09-21T02:25:41.751Z,53.9
2018-09-21T02:26:31.545Z,53.9
2018-09-21T02:27:21.614Z,53.9
2018-09-21T02:28:11.967Z,53.8
2018-09-21T02:29:02.027Z,53.8
2018-09-21T02:29:51.787Z,53.8
2018-09-21T02:30:42.168Z,53.8
2018-09-21T02:31:31.689Z,53.8
2018-09-21T02:32:22.297Z,53.8
2018-09-21T02:33:12.394Z,53.8
2018-09-21T02:34:02.466Z,53.8
2018-09-21T02:34:51.919Z,53.8
2018-09-21T02:35:42.296Z,53.8
2018-09-21T02:36:32.009Z,53.8
2018-09-21T02:37:22.084Z,53.8
2018-09-21T02:38:12.712Z,53.8
2018-09-21T02:39:02.506Z,53.8
2018-09-21T02:39:52.822Z,53.8
2018-09-21T02:40:42.897Z,53.7
2018-09-21T02:41:34.693Z,53.7
2018-09-21T02:42:23.024Z,53.7
2018-09-21T02:43:13.072Z,53.7
2018-09-21T02:44:02.829Z,53.7
2018-09-21T02:44:52.367Z,53.7
2018-09-21T02:45:43.262Z,53.7
2018-09-21T02:46:32.809Z,53.6
2018-09-21T02:47:23.109Z,53.7
2018-09-21T02:48:12.926Z,53.6
2018-09-21T02:49:02.726Z,53.6
2018-09-21T02:49:53.613Z,53.6
2018-09-21T02:50:43.383Z,53.6
2018-09-21T02:51:33.759Z,53.6
2018-09-21T02:52:23.539Z,53.6
2018-09-21T02:53:12.694Z,53.6
2018-09-21T02:54:03.662Z,53.6
2018-09-21T02:54:53.956Z,53.6
2018-09-21T02:55:43.454Z,53.6
2018-09-21T02:56:33.788Z,53.6
2018-09-21T02:57:24.211Z,53.6
2018-09-21T02:58:13.908Z,53.6
2018-09-21T02:59:04.276Z,53.6
2018-09-21T02:59:54.354Z,53.6
2018-09-21T03:00:45.523Z,53.6
2018-09-21T03:01:34.191Z,53.6
2018-09-21T03:02:24.598Z,53.5
2018-09-21T03:03:14.282Z,53.5
2018-09-21T03:04:04.650Z,53.5
2018-09-21T03:04:54.186Z,53.5
2018-09-21T03:05:44.466Z,53.5
2018-09-21T03:06:34.840Z,53.5
2018-09-21T03:07:24.054Z,53.5
2018-09-21T03:08:14.995Z,53.5
2018-09-21T03:09:05.040Z,53.4
2018-09-21T03:09:54.578Z,53.4
2018-09-21T03:10:45.088Z,53.4
2018-09-21T03:11:35.186Z,53.4
2018-09-21T03:12:25.230Z,53.4
2018-09-21T03:13:15.487Z,53.4
2018-09-21T03:14:05.391Z,53.4
2018-09-21T03:14:55.465Z,53.4
2018-09-21T03:15:44.690Z,53.4
2018-09-21T03:16:35.025Z,53.4
2018-09-21T03:17:26.070Z,53.4
2018-09-21T03:18:15.207Z,53.4
2018-09-21T03:19:05.919Z,53.4
2018-09-21T03:19:55.692Z,53.4
2018-09-21T03:20:45.648Z,53.4
2018-09-21T03:21:35.735Z,53.4
2018-09-21T03:22:26.283Z,53.3
2018-09-21T03:23:15.847Z,53.3
2018-09-21T03:24:06.145Z,53.3
2018-09-21T03:24:56.191Z,53.3
2018-09-21T03:25:46.360Z,53.3
2018-09-21T03:26:35.484Z,53.3
2018-09-21T03:27:26.392Z,53.3
2018-09-21T03:28:15.868Z,53.3
2018-09-21T03:29:05.965Z,53.3
2018-09-21T03:29:56.607Z,53.3
2018-09-21T03:30:46.937Z,53.3
2018-09-21T03:31:36.710Z,53.3
2018-09-21T03:32:26.503Z,53.3
2018-09-21T03:33:16.836Z,53.3
2018-09-21T03:34:06.584Z,53.3
2018-09-21T03:34:57.035Z,53.2
2018-09-21T03:35:47.049Z,53.3
2018-09-21T03:36:37.095Z,53.2
2018-09-21T03:37:27.141Z,53.3
2018-09-21T03:38:17.206Z,53.2
2018-09-21T03:39:06.973Z,53.2
2018-09-21T03:39:57.033Z,53.2
2018-09-21T03:40:47.094Z,53.2
2018-09-21T03:41:37.457Z,53.1
2018-09-21T03:42:27.505Z,53.2
2018-09-21T03:43:17.290Z,53.1
2018-09-21T03:44:07.321Z,53.1
2018-09-21T03:44:57.423Z,53.1
2018-09-21T03:45:47.216Z,53.1
2018-09-21T03:46:37.249Z,53.1
2018-09-21T03:47:27.605Z,53.1
2018-09-21T03:48:17.928Z,53.1
2018-09-21T03:49:08.020Z,53.1
2018-09-21T03:49:57.790Z,53.1
2018-09-21T03:50:48.103Z,53.1
2018-09-21T03:51:38.182Z,53.1
2018-09-21T03:52:28.250Z,53.1
2018-09-21T03:53:17.732Z,53.1
2018-09-21T03:54:08.107Z,53.1
2018-09-21T03:54:58.175Z,53.1
2018-09-21T03:55:48.619Z,53.1
2018-09-21T03:56:38.844Z,53
2018-09-21T03:57:28.350Z,53.1
2018-09-21T03:58:18.404Z,53
2018-09-21T03:59:08.447Z,53
2018-09-21T03:59:58.835Z,53
2018-09-21T04:00:49.180Z,53
2018-09-21T04:01:39.248Z,53
2018-09-21T04:02:28.921Z,53
2018-09-21T04:03:18.501Z,53
2018-09-21T04:04:09.129Z,52.9
2018-09-21T04:04:59.170Z,52.9
2018-09-21T04:05:49.495Z,52.9
2018-09-21T04:06:39.091Z,52.9
2018-09-21T04:07:28.908Z,52.9
2018-09-21T04:08:18.849Z,52.9
2018-09-21T04:09:09.205Z,52.9
2018-09-21T04:09:59.274Z,52.9
2018-09-21T04:10:49.623Z,52.9
2018-09-21T04:11:39.676Z,52.9
2018-09-21T04:12:29.483Z,52.9
2018-09-21T04:13:19.231Z,52.9
2018-09-21T04:14:09.308Z,52.9
2018-09-21T04:14:59.075Z,52.9
2018-09-21T04:15:49.411Z,52.9
2018-09-21T04:16:39.815Z,52.9
2018-09-21T04:17:29.828Z,52.9
2018-09-21T04:18:20.181Z,52.9
2018-09-21T04:19:09.666Z,52.8
2018-09-21T04:19:59.988Z,52.8
2018-09-21T04:20:50.093Z,52.8
2018-09-21T04:21:40.398Z,52.8
2018-09-21T04:22:30.478Z,52.8
2018-09-21T04:23:19.981Z,52.8
2018-09-21T04:24:10.648Z,52.8
2018-09-21T04:25:00.380Z,52.8
2018-09-21T04:25:50.749Z,52.8
2018-09-21T04:26:40.733Z,52.8
2018-09-21T04:27:31.162Z,52.8
2018-09-21T04:28:20.657Z,52.8
2018-09-21T04:29:11.184Z,52.8
2018-09-21T04:30:00.827Z,52.8
2018-09-21T04:30:50.805Z,52.8
2018-09-21T04:31:40.882Z,52.8
2018-09-21T04:32:31.225Z,52.8
2018-09-21T04:33:21.275Z,52.7
2018-09-21T04:34:11.127Z,52.7
2018-09-21T04:35:01.429Z,52.7
2018-09-21T04:35:51.199Z,52.7
2018-09-21T04:36:41.290Z,52.7
2018-09-21T04:37:31.660Z,52.7
2018-09-21T04:38:21.387Z,52.6
2018-09-21T04:39:11.765Z,52.6
2018-09-21T04:40:01.767Z,52.6
2018-09-21T04:40:51.866Z,52.6
2018-09-21T04:41:42.199Z,52.6
2018-09-21T04:42:31.697Z,52.6
2018-09-21T04:43:22.372Z,52.6
2018-09-21T04:44:11.819Z,52.6
2018-09-21T04:45:01.679Z,52.6
2018-09-21T04:45:52.553Z,52.6
2018-09-21T04:46:42.049Z,52.6
2018-09-21T04:47:32.348Z,52.6
2018-09-21T04:48:22.519Z,52.6
2018-09-21T04:49:12.281Z,52.6
2018-09-21T04:50:02.695Z,52.6
2018-09-21T04:50:52.613Z,52.6
2018-09-21T04:51:42.076Z,52.6
2018-09-21T04:52:32.669Z,52.5
2018-09-21T04:53:22.309Z,52.5
2018-09-21T04:54:12.339Z,52.6
2018-09-21T04:55:02.121Z,52.5
2018-09-21T04:55:52.454Z,52.5
2018-09-21T04:56:43.056Z,52.5
2018-09-21T04:57:32.544Z,52.5
2018-09-21T04:58:23.141Z,52.5
2018-09-21T04:59:12.913Z,52.5
2018-09-21T05:00:03.281Z,52.5
2018-09-21T05:00:53.076Z,52.5
2018-09-21T05:01:43.390Z,52.5
2018-09-21T05:02:33.473Z,52.4
2018-09-21T05:03:23.213Z,52.4
2018-09-21T05:04:13.560Z,52.4
2018-09-21T05:05:03.643Z,52.4
2018-09-21T05:05:53.700Z,52.4
2018-09-21T05:06:43.503Z,52.4
2018-09-21T05:07:32.947Z,52.4
2018-09-21T05:25:13.571Z,52.3
2018-09-21T05:26:04.149Z,52.3
2018-09-21T05:26:54.266Z,52.3
2018-09-21T05:27:44.634Z,52.3
2018-09-21T05:28:33.767Z,52.2
2018-09-21T05:29:23.809Z,52.3
2018-09-21T05:30:14.145Z,52.2
2018-09-21T05:31:04.247Z,52.2
2018-09-21T05:31:54.796Z,52.2
2018-09-21T05:32:44.647Z,52.2
2018-09-21T05:33:34.392Z,52.2
2018-09-21T05:34:25.801Z,52.2
2018-09-21T05:35:16.255Z,52.2
2018-09-21T05:36:04.923Z,52.1
2018-09-21T05:36:54.921Z,52.1
2018-09-21T05:37:44.966Z,52.1
2018-09-21T05:38:34.484Z,52.1
2018-09-21T05:39:24.577Z,52.1
2018-09-21T05:40:14.636Z,52.1
2018-09-21T05:41:04.686Z,52.1
2018-09-21T05:41:54.991Z,52.1
2018-09-21T05:42:45.371Z,52.1
2018-09-21T05:43:35.179Z,52.1
2018-09-21T05:44:24.430Z,52.1
2018-09-21T05:45:15.028Z,52.1
2018-09-21T05:46:05.093Z,52.1
2018-09-21T05:46:55.495Z,52.1
2018-09-21T05:47:45.503Z,52.1
2018-09-21T05:48:35.876Z,52.1
2018-09-21T05:49:25.582Z,52.1
2018-09-21T05:50:16.004Z,52.1
2018-09-21T05:51:05.148Z,52
2018-09-21T05:51:55.522Z,52
2018-09-21T05:52:45.858Z,52
2018-09-21T05:53:35.388Z,52
2018-09-21T05:54:26.123Z,52
2018-09-21T05:55:16.069Z,52
2018-09-21T05:56:06.408Z,52
2018-09-21T05:56:55.894Z,52
2018-09-21T05:58:35.818Z,52
2018-09-21T05:59:25.655Z,52
2018-09-21T06:06:06.424Z,51.9
2018-09-21T06:06:56.927Z,51.9
2018-09-21T06:07:47.619Z,51.9
2018-09-21T06:08:37.047Z,51.9
2018-09-21T06:09:27.157Z,51.9
2018-09-21T06:10:16.634Z,51.9
2018-09-21T06:11:06.657Z,51.9
2018-09-21T06:11:57.019Z,51.9
2018-09-21T06:12:47.407Z,51.9
2018-09-21T06:13:37.209Z,51.8
2018-09-21T06:14:27.900Z,51.8
2018-09-21T06:15:17.115Z,51.8
2018-09-21T06:16:07.397Z,51.8
2018-09-21T06:16:57.686Z,51.8
2018-09-21T06:17:48.037Z,51.8
2018-09-21T06:18:37.778Z,51.8
2018-09-21T06:19:28.446Z,51.8
2018-09-21T06:20:18.178Z,51.8
2018-09-21T06:21:08.288Z,51.8
2018-09-21T06:21:57.512Z,51.8
2018-09-21T06:22:49.488Z,51.8
2018-09-21T06:23:38.515Z,51.8
2018-09-21T06:24:28.597Z,51.8
2018-09-21T06:25:18.309Z,51.8
2018-09-21T06:26:08.879Z,51.8
2018-09-21T06:26:58.723Z,51.7
2018-09-21T06:27:48.493Z,51.8
2018-09-21T06:28:38.616Z,51.8
2018-09-21T06:29:28.656Z,51.7
2018-09-21T06:30:18.413Z,51.7
2018-09-21T06:31:08.498Z,51.7
2018-09-21T06:31:58.933Z,51.7
2018-09-21T06:32:48.631Z,51.7
2018-09-21T06:33:38.963Z,51.7
2018-09-21T06:34:29.013Z,51.7
2018-09-21T06:35:19.597Z,51.6
2018-09-21T06:36:09.131Z,51.7
2018-09-21T06:36:59.420Z,51.6
2018-09-21T06:37:49.490Z,51.6
2018-09-21T06:38:39.300Z,51.6
2018-09-21T06:39:29.658Z,51.6
2018-09-21T06:40:19.429Z,51.6
2018-09-21T06:41:09.698Z,51.6
2018-09-21T06:41:59.870Z,51.6
2018-09-21T06:42:49.060Z,51.6
2018-09-21T06:43:39.945Z,51.6
2018-09-21T06:44:30.145Z,51.6
2018-09-21T06:45:19.548Z,51.6
2018-09-21T06:46:09.305Z,51.6
2018-09-21T06:46:59.607Z,51.6
2018-09-21T06:47:49.967Z,51.6
2018-09-21T06:48:40.042Z,51.6
2018-09-21T06:49:30.339Z,51.6
2018-09-21T06:50:20.172Z,51.6
2018-09-21T06:51:10.235Z,51.5
2018-09-21T06:52:00.547Z,51.5
2018-09-21T06:52:50.879Z,51.5
2018-09-21T06:53:39.845Z,51.5
2018-09-21T06:54:30.473Z,51.5
2018-09-21T06:55:20.543Z,51.5
2018-09-21T06:56:09.764Z,51.5
2018-09-21T06:57:00.403Z,51.5
2018-09-21T06:57:51.039Z,51.4
2018-09-21T06:58:41.079Z,51.5
2018-09-21T06:59:31.124Z,51.4
2018-09-21T07:00:20.634Z,51.4
2018-09-21T07:01:10.699Z,51.4
2018-09-21T07:02:02.042Z,51.4
2018-09-21T07:02:51.111Z,51.4
2018-09-21T07:03:41.121Z,51.4
2018-09-21T07:04:31.513Z,51.4
2018-09-21T07:05:21.103Z,51.4
2018-09-21T07:06:11.083Z,51.4
2018-09-21T07:07:01.694Z,51.4
2018-09-21T07:07:50.920Z,51.4
2018-09-21T07:08:42.082Z,51.4
2018-09-21T07:09:31.348Z,51.4
2018-09-21T07:10:22.004Z,51.4
2018-09-21T07:11:12.051Z,51.4
2018-09-21T07:12:01.924Z,51.4
2018-09-21T07:12:51.335Z,51.3
2018-09-21T07:13:41.143Z,51.4
2018-09-21T07:14:31.439Z,51.3
2018-09-21T07:15:22.050Z,51.3
2018-09-21T07:16:11.886Z,51.3
2018-09-21T07:17:02.038Z,51.3
2018-09-21T07:17:51.668Z,51.3
2018-09-21T07:18:41.850Z,51.3
2018-09-21T07:19:31.804Z,51.3
2018-09-21T07:20:22.435Z,51.3
2018-09-21T07:21:12.215Z,51.3
2018-09-21T07:22:02.817Z,51.3
2018-09-21T07:22:52.880Z,51.3
2018-09-21T07:23:42.725Z,51.3
2018-09-21T07:24:32.445Z,51.3
2018-09-21T07:25:22.800Z,51.3
2018-09-21T07:26:12.899Z,51.3
2018-09-21T07:27:02.668Z,51.2
2018-09-21T07:27:53.252Z,51.3
2018-09-21T07:28:43.045Z,51.2
2018-09-21T07:29:33.409Z,51.2
2018-09-21T07:30:23.182Z,51.2
2018-09-21T07:31:13.636Z,51.2
2018-09-21T07:32:03.838Z,51.2
2018-09-21T07:32:52.925Z,51.2
2018-09-21T07:33:43.428Z,51.2
2018-09-21T07:34:33.499Z,51.2
2018-09-21T07:35:23.354Z,51.1
2018-09-21T07:36:13.350Z,51.2
2018-09-21T07:37:03.442Z,51.1
2018-09-21T07:37:53.453Z,51.1
2018-09-21T07:38:44.149Z,51.1
2018-09-21T07:39:34.132Z,51.1
2018-09-21T07:40:23.673Z,51.1
2018-09-21T07:41:13.717Z,51.1
2018-09-21T07:42:04.293Z,51.1
2018-09-21T07:42:54.468Z,51.1
2018-09-21T07:43:43.971Z,51.1
2018-09-21T07:44:33.824Z,51.1
2018-09-21T07:45:24.367Z,51.1
2018-09-21T07:46:14.659Z,51.1
2018-09-21T07:47:04.161Z,51.1
2018-09-21T07:47:54.330Z,51.1
2018-09-21T07:48:44.659Z,51.1
2018-09-21T07:49:34.349Z,51.1
2018-09-21T07:50:25.430Z,51
2018-09-21T07:51:15.031Z,51.1
2018-09-21T07:52:05.066Z,51.1
2018-09-21T07:52:54.594Z,51
2018-09-21T07:53:44.924Z,51
2018-09-21T07:54:35.397Z,51
2018-09-21T07:55:25.051Z,51
2018-09-21T07:56:15.406Z,51
2018-09-21T07:57:05.161Z,51
2018-09-21T07:57:55.529Z,51
2018-09-21T07:58:45.021Z,51
2018-09-21T07:59:35.078Z,51.1
2018-09-21T08:00:25.153Z,51
2018-09-21T08:01:15.789Z,50.8
2018-09-21T08:02:05.866Z,50.6
2018-09-21T08:02:56.199Z,50.5
2018-09-21T08:03:45.671Z,50.4
2018-09-21T08:04:35.751Z,50.4
2018-09-21T08:05:25.831Z,50.3
2018-09-21T08:06:15.609Z,50.3
2018-09-21T08:07:06.168Z,50.3
2018-09-21T08:07:56.255Z,50.3
2018-09-21T08:08:46.333Z,50.3
2018-09-21T08:09:36.402Z,50.3
2018-09-21T08:10:26.245Z,50.3
2018-09-21T08:11:16.247Z,50.2
2018-09-21T08:12:06.582Z,50.2
2018-09-21T08:12:56.517Z,50.2
2018-09-21T08:13:46.427Z,50.2
2018-09-21T08:14:36.513Z,50.2
2018-09-21T08:15:26.017Z,50.2
2018-09-21T08:16:16.639Z,50.1
2018-09-21T08:17:06.677Z,50.1
2018-09-21T08:17:57.065Z,50.1
2018-09-21T08:18:47.187Z,50.1
2018-09-21T08:19:37.953Z,50.1
2018-09-21T08:20:27.244Z,50.1
2018-09-21T08:21:17.307Z,50.1
2018-09-21T08:22:07.355Z,50.1
2018-09-21T08:22:57.144Z,50.1
2018-09-21T08:23:47.162Z,50.1
2018-09-21T08:24:37.259Z,50.1
2018-09-21T08:25:27.350Z,50.1
2018-09-21T08:26:17.405Z,50.1
2018-09-21T08:27:07.470Z,50.1
2018-09-21T08:27:57.509Z,50.1
2018-09-21T08:28:47.376Z,50
2018-09-21T08:29:37.142Z,49.9
2018-09-21T08:30:27.129Z,49.9
2018-09-21T08:31:17.385Z,49.9
2018-09-21T08:32:07.542Z,50
2018-09-21T08:32:57.172Z,49.9
2018-09-21T08:33:47.938Z,49.9
2018-09-21T08:34:38.084Z,49.9
2018-09-21T08:35:28.132Z,49.9
2018-09-21T08:36:18.466Z,49.9
2018-09-21T08:37:09.120Z,49.9
2018-09-21T08:37:58.588Z,49.9
2018-09-21T08:38:48.388Z,49.9
2018-09-21T08:39:38.651Z,49.9
2018-09-21T08:40:28.181Z,49.8
2018-09-21T08:41:18.213Z,49.8
2018-09-21T08:42:09.088Z,49.8
2018-09-21T08:42:58.619Z,49.8
2018-09-21T08:43:48.441Z,49.8
2018-09-21T08:44:38.031Z,49.8
2018-09-21T08:45:29.575Z,49.8
2018-09-21T08:46:18.920Z,49.8
2018-09-21T08:47:08.921Z,49.8
2018-09-21T08:47:59.048Z,49.8
2018-09-21T08:48:48.797Z,49.8
2018-09-21T08:49:39.413Z,49.9
2018-09-21T08:50:29.500Z,49.9
2018-09-21T08:51:19.298Z,49.9
2018-09-21T08:52:09.600Z,50
2018-09-21T08:52:58.185Z,49.9
2018-09-21T08:53:48.995Z,49.9
2018-09-21T08:54:39.841Z,49.9
2018-09-21T08:55:29.915Z,49.9
2018-09-21T08:56:19.932Z,49.9
2018-09-21T08:57:09.525Z,49.9
2018-09-21T08:58:00.068Z,49.9
2018-09-21T08:58:49.579Z,49.9
2018-09-21T08:59:39.318Z,50
2018-09-21T09:00:29.997Z,50
2018-09-21T09:01:20.465Z,50.1
2018-09-21T09:02:10.208Z,50.1
2018-09-21T09:03:01.282Z,50.3
2018-09-21T09:03:50.757Z,50.3
2018-09-21T09:04:40.483Z,50.4
2018-09-21T09:05:30.245Z,50.4
2018-09-21T09:06:20.794Z,50.5
2018-09-21T09:07:10.870Z,50.6
2018-09-21T09:08:00.590Z,50.6
2018-09-21T09:08:50.872Z,50.7
2018-09-21T09:09:40.947Z,50.8
2018-09-21T09:10:30.754Z,50.8
2018-09-21T09:11:21.114Z,50.9
2018-09-21T09:12:10.615Z,50.9
2018-09-21T09:13:00.722Z,51
2018-09-21T09:13:51.026Z,51.1
2018-09-21T09:14:40.798Z,51.1
2018-09-21T09:15:31.142Z,51.2
2018-09-21T09:16:21.162Z,51.3
2018-09-21T09:17:11.237Z,51.3
2018-09-21T09:18:01.031Z,51.4
2018-09-21T09:18:51.679Z,51.4
2018-09-21T09:19:41.456Z,51.5
2018-09-21T09:20:31.347Z,51.5
2018-09-21T09:21:21.548Z,51.6
2018-09-21T09:22:11.916Z,51.6
2018-09-21T09:23:01.802Z,51.7
2018-09-21T09:39:58.691Z,52.3
2018-09-21T09:40:48.775Z,52.3
2018-09-21T09:41:39.162Z,52.3
2018-09-21T09:42:29.173Z,52.2
2018-09-21T09:43:19.436Z,52.2
2018-09-21T09:44:09.297Z,52.3
2018-09-21T09:45:00.209Z,52.3
2018-09-21T09:45:48.655Z,52.2
2018-09-21T09:46:39.194Z,52.2
2018-09-21T09:47:29.532Z,52.2
2018-09-21T09:48:19.674Z,52.2
2018-09-21T09:49:10.351Z,52.2
2018-09-21T09:49:59.722Z,52.2
2018-09-21T09:50:49.222Z,52.2
2018-09-21T09:51:39.942Z,52.2
2018-09-21T09:52:29.927Z,52.2
2018-09-21T09:53:19.994Z,52.1
2018-09-21T09:54:10.057Z,52.2
2018-09-21T09:55:00.596Z,52.1
2018-09-21T09:55:49.602Z,52.1
2018-09-21T09:56:39.747Z,52.1
2018-09-21T09:57:30.299Z,52.1
2018-09-21T09:58:20.356Z,52.1
2018-09-21T09:59:10.434Z,52.1
2018-09-21T10:00:00.192Z,52.1
2018-09-21T10:00:50.606Z,52.1
2018-09-21T10:01:40.627Z,52.1
2018-09-21T10:02:30.121Z,52.1
2018-09-21T10:03:19.952Z,52.1
2018-09-21T10:04:10.817Z,52.1
2018-09-21T10:05:00.641Z,52.1
2018-09-21T10:05:50.361Z,52.1
2018-09-21T10:06:41.010Z,52.1
2018-09-21T10:07:30.563Z,52
2018-09-21T10:08:20.830Z,52.1
2018-09-21T10:09:10.929Z,52
2018-09-21T10:10:01.258Z,52
2018-09-21T10:10:51.388Z,52
2018-09-21T10:11:41.090Z,52
2018-09-21T10:12:31.178Z,52
2018-09-21T10:13:21.278Z,52
2018-09-21T10:14:11.265Z,52
2018-09-21T10:15:01.344Z,52
2018-09-21T10:22:31.922Z,51.9
2018-09-21T10:24:12.855Z,51.9
2018-09-21T10:25:02.112Z,51.9
2018-09-21T10:25:52.487Z,51.9
2018-09-21T10:26:41.976Z,51.9
2018-09-21T10:27:35.440Z,51.9
2018-09-21T10:28:25.202Z,51.9
2018-09-21T10:29:12.820Z,51.8
2018-09-21T10:30:02.855Z,51.9
2018-09-21T10:30:52.591Z,51.9
2018-09-21T10:31:42.687Z,51.8
2018-09-21T10:32:32.409Z,51.8
2018-09-21T10:33:23.585Z,51.8
2018-09-21T10:34:13.114Z,51.8
2018-09-21T10:35:02.669Z,51.8
2018-09-21T10:35:53.223Z,51.8
2018-09-21T10:36:43.261Z,51.8
2018-09-21T10:37:33.047Z,51.8
2018-09-21T10:38:23.142Z,51.8
2018-09-21T10:39:14.010Z,51.8
2018-09-21T10:40:04.804Z,51.8
2018-09-21T10:40:53.596Z,51.8
2018-09-21T10:41:43.407Z,51.8
2018-09-21T10:42:34.298Z,51.8
2018-09-21T10:43:23.559Z,51.8
2018-09-21T10:44:13.567Z,51.7
2018-09-21T10:45:03.958Z,51.8
2018-09-21T10:45:53.960Z,51.7
2018-09-21T10:46:44.175Z,51.7
2018-09-21T10:47:35.321Z,51.7
2018-09-21T10:48:23.868Z,51.7
2018-09-21T10:49:14.230Z,51.7
2018-09-21T10:50:03.721Z,51.7
2018-09-21T10:50:55.852Z,51.7
2018-09-21T10:51:44.173Z,51.7
2018-09-21T10:52:34.351Z,51.6
2018-09-21T10:53:24.058Z,51.6
2018-09-21T10:54:14.049Z,51.6
2018-09-21T10:55:04.115Z,51.6
2018-09-21T10:55:54.153Z,51.6
2018-09-21T10:56:45.353Z,51.6
2018-09-21T10:57:34.365Z,51.6
2018-09-21T10:58:24.918Z,51.6
2018-09-21T10:59:14.524Z,51.6
2018-09-21T11:00:04.276Z,51.6
2018-09-21T11:00:55.115Z,51.6
2018-09-21T11:01:44.859Z,51.6
2018-09-21T11:02:34.675Z,51.6
2018-09-21T11:03:25.012Z,51.6
2018-09-21T11:04:15.354Z,51.6
2018-09-21T11:05:04.874Z,51.5
2018-09-21T11:05:55.490Z,51.5
2018-09-21T11:06:44.950Z,51.5
2018-09-21T11:07:35.591Z,51.5
2018-09-21T11:08:25.396Z,51.5
2018-09-21T11:09:15.804Z,51.5
2018-09-21T11:10:05.524Z,51.5
2018-09-21T11:10:55.036Z,51.5
2018-09-21T11:11:46.022Z,51.5
2018-09-21T11:12:35.507Z,51.4
2018-09-21T11:13:26.101Z,51.4
2018-09-21T11:14:16.144Z,51.4
2018-09-21T11:15:05.895Z,51.4
2018-09-21T11:15:56.259Z,51.4
2018-09-21T11:16:45.819Z,51.4
2018-09-21T11:17:36.104Z,51.4
2018-09-21T11:18:26.431Z,51.4
2018-09-21T11:19:15.928Z,51.4
2018-09-21T11:20:06.294Z,51.4
2018-09-21T11:20:56.330Z,51.4
2018-09-21T11:21:46.695Z,51.4
2018-09-21T11:22:36.196Z,51.4
2018-09-21T11:23:26.235Z,51.4
2018-09-21T11:24:16.904Z,51.4
2018-09-21T11:25:06.954Z,51.3
2018-09-21T11:25:57.025Z,51.3
2018-09-21T11:26:47.091Z,51.3
2018-09-21T11:27:36.536Z,51.3
2018-09-21T11:28:27.208Z,51.3
2018-09-21T11:29:16.982Z,51.3
2018-09-21T11:30:06.753Z,51.3
2018-09-21T11:30:57.400Z,51.3
2018-09-21T11:31:47.165Z,51.3
2018-09-21T11:32:37.684Z,51.3
2018-09-21T11:33:27.602Z,51.3
2018-09-21T11:34:17.387Z,51.3
2018-09-21T11:35:07.465Z,51.3
2018-09-21T11:35:57.495Z,51.3
2018-09-21T11:36:47.852Z,51.3
2018-09-21T11:37:37.906Z,51.3
2018-09-21T11:38:27.665Z,51.3
2018-09-21T11:39:17.465Z,51.2
2018-09-21T11:40:07.820Z,51.2
2018-09-21T11:40:58.376Z,51.2
2018-09-21T11:41:47.845Z,51.2
2018-09-21T11:42:37.994Z,51.2
2018-09-21T11:43:28.085Z,51.2
2018-09-21T11:44:17.919Z,51.2
2018-09-21T11:45:07.132Z,51.2
2018-09-21T11:45:58.252Z,51.1
2018-09-21T11:46:49.939Z,51.1
2018-09-21T11:47:39.542Z,51.1
2018-09-21T11:48:28.726Z,51.1
2018-09-21T11:49:18.791Z,51.1
2018-09-21T11:50:08.570Z,51.1
2018-09-21T11:50:58.974Z,51.1
2018-09-21T11:51:48.963Z,51.1
2018-09-21T11:52:39.004Z,51.1
2018-09-21T11:53:29.060Z,51.1
2018-09-21T11:54:18.887Z,51.1
2018-09-21T11:55:08.657Z,51.1
2018-09-21T11:55:59.054Z,51.1
2018-09-21T11:56:49.091Z,51.1
2018-09-21T11:57:39.136Z,51.1
2018-09-21T11:58:28.945Z,51
2018-09-21T11:59:19.591Z,51
2018-09-21T12:00:09.338Z,51
2018-09-21T12:00:59.374Z,51
2018-09-21T12:01:49.571Z,51
2018-09-21T12:02:39.321Z,51
2018-09-21T12:03:29.859Z,51
2018-09-21T12:04:19.498Z,51
2018-09-21T12:05:09.546Z,51
2018-09-21T12:05:59.283Z,51
2018-09-21T12:06:50.159Z,50.9
2018-09-21T12:07:39.931Z,50.9
2018-09-21T12:08:30.193Z,50.9
2018-09-21T12:09:20.304Z,50.9
2018-09-21T12:10:10.359Z,50.9
2018-09-21T12:11:00.143Z,50.9
2018-09-21T12:11:50.489Z,50.9
2018-09-21T12:12:40.273Z,50.9
2018-09-21T12:13:30.636Z,50.9
2018-09-21T12:14:19.587Z,50.9
2018-09-21T12:15:10.763Z,50.9
2018-09-21T12:16:01.502Z,50.9
2018-09-21T12:16:50.808Z,50.9
2018-09-21T12:17:40.963Z,50.9
2018-09-21T12:18:30.517Z,50.9
2018-09-21T12:19:21.027Z,50.8
2018-09-21T12:20:11.127Z,50.8
2018-09-21T12:21:00.908Z,50.8
2018-09-21T12:21:51.268Z,50.8
2018-09-21T12:22:41.188Z,50.8
2018-09-21T12:23:31.400Z,50.8
2018-09-21T12:24:21.572Z,50.8
2018-09-21T12:25:11.289Z,50.8
2018-09-21T12:26:01.295Z,50.8
2018-09-21T12:26:51.677Z,50.8
2018-09-21T12:27:41.400Z,50.8
2018-09-21T12:28:31.588Z,50.8
2018-09-21T12:29:21.512Z,50.8
2018-09-21T12:30:11.943Z,50.8
2018-09-21T12:31:01.664Z,50.8
2018-09-21T12:31:52.021Z,50.7
2018-09-21T12:32:41.807Z,50.7
2018-09-21T12:33:31.862Z,50.7
2018-09-21T12:34:22.193Z,50.7